Map

Track Data

SID SEASON NUMBER BASIN SUBBASIN NAME ISO_TIME NATURE LAT LON WMO_WIND WMO_PRES WMO_AGENCY TRACK_TYPE DIST2LAND LANDFALL IFLAG USA_AGENCY USA_ATCF_ID USA_LAT USA_LON USA_RECORD USA_STATUS USA_WIND USA_PRES USA_SSHS USA_R34_NE USA_R34_SE USA_R34_SW USA_R34_NW USA_R50_NE USA_R50_SE USA_R50_SW USA_R50_NW USA_R64_NE USA_R64_SE USA_R64_SW USA_R64_NW USA_POCI USA_ROCI USA_RMW USA_EYE TOKYO_LAT TOKYO_LON TOKYO_GRADE TOKYO_WIND TOKYO_PRES TOKYO_R50_DIR TOKYO_R50_LONG TOKYO_R50_SHORT TOKYO_R30_DIR TOKYO_R30_LONG TOKYO_R30_SHORT TOKYO_LAND CMA_LAT CMA_LON CMA_CAT CMA_WIND CMA_PRES HKO_LAT HKO_LON HKO_CAT HKO_WIND HKO_PRES NEWDELHI_LAT NEWDELHI_LON NEWDELHI_GRADE NEWDELHI_WIND NEWDELHI_PRES NEWDELHI_CI NEWDELHI_DP NEWDELHI_POCI REUNION_LAT REUNION_LON REUNION_TYPE REUNION_WIND REUNION_PRES REUNION_TNUM REUNION_CI REUNION_RMW REUNION_R34_NE REUNION_R34_SE REUNION_R34_SW REUNION_R34_NW REUNION_R50_NE REUNION_R50_SE REUNION_R50_SW REUNION_R50_NW REUNION_R64_NE REUNION_R64_SE REUNION_R64_SW REUNION_R64_NW BOM_LAT BOM_LON BOM_TYPE BOM_WIND BOM_PRES BOM_TNUM BOM_CI BOM_RMW BOM_R34_NE BOM_R34_SE BOM_R34_SW BOM_R34_NW BOM_R50_NE BOM_R50_SE BOM_R50_SW BOM_R50_NW BOM_R64_NE BOM_R64_SE BOM_R64_SW BOM_R64_NW BOM_ROCI BOM_POCI BOM_EYE BOM_POS_METHOD BOM_PRES_METHOD NADI_LAT NADI_LON NADI_CAT NADI_WIND NADI_PRES WELLINGTON_LAT WELLINGTON_LON WELLINGTON_WIND WELLINGTON_PRES DS824_LAT DS824_LON DS824_STAGE DS824_WIND DS824_PRES TD9636_LAT TD9636_LON TD9636_STAGE TD9636_WIND TD9636_PRES TD9635_LAT TD9635_LON TD9635_WIND TD9635_PRES TD9635_ROCI NEUMANN_LAT NEUMANN_LON NEUMANN_CLASS NEUMANN_WIND NEUMANN_PRES MLC_LAT MLC_LON MLC_CLASS MLC_WIND MLC_PRES USA_GUST BOM_GUST BOM_GUST_PER REUNION_GUST REUNION_GUST_PER USA_SEAHGT USA_SEARAD_NE USA_SEARAD_SE USA_SEARAD_SW USA_SEARAD_NW STORM_SPEED STORM_DIR
1964089S12178 1964 24 SP MM HENRIETTA 1964-03-28 12:00:00 TS -12.2000 178.200 main 479 479 O________OO_O_ jtwc_sh SH291964 -12.2000 178.200 -1 -12.2000 178.200 TC 65 -12.2000 178.200 4 -12.2000 178.200 TC 25 8 323
1964089S12178 1964 24 SP MM HENRIETTA 1964-03-28 15:00:00 TS -11.8906 177.962 main 518 518 P________PP_P_ SH291964 -11.8875 177.972 -1 -11.8875 177.972 TC 65 -11.9000 177.932 4 -11.8875 177.972 TC 25 8 320
1964089S12178 1964 24 SP MM HENRIETTA 1964-03-28 18:00:00 TS -11.6050 177.686 main 560 560 O________OP_O_ jtwc_sh SH291964 -11.6000 177.700 -1 -11.6000 177.700 TC 65 -11.6199 177.642 4 -11.6000 177.700 TC 25 8 310
1964089S12178 1964 24 SP MM HENRIETTA 1964-03-28 21:00:00 TS -11.3668 177.335 main 597 597 P________PP_P_ SH291964 -11.3624 177.345 -1 -11.3624 177.345 TC 65 -11.3799 177.306 4 -11.3624 177.345 TC 27 9 298
1964089S12178 1964 24 SP MM HENRIETTA 1964-03-29 00:00:00 TS -11.2000 176.900 main 635 635 O________OO_O_ jtwc_sh SH291964 -11.2000 176.900 -1 -11.2000 176.900 TC 65 -11.2000 176.900 4 -11.2000 176.900 TC 30 10 286
1964089S12178 1964 24 SP MM HENRIETTA 1964-03-29 03:00:00 TS -11.1083 176.387 main 666 666 P________PP_P_ SH291964 -11.1125 176.380 -1 -11.1125 176.380 TC 65 -11.0957 176.409 4 -11.1125 176.380 TC 32 11 276
1964089S12178 1964 24 SP MM HENRIETTA 1964-03-29 06:00:00 TS -11.0913 175.812 main 691 691 O________OP_O_ jtwc_sh SH291964 -11.1000 175.800 -1 -11.1000 175.800 TC 65 -11.0650 175.847 4 -11.1000 175.800 TC 35 11 270
1964089S12178 1964 24 SP MM HENRIETTA 1964-03-29 09:00:00 TS -11.1154 175.220 main 721 721 P________PP_P_ SH291964 -11.1199 175.215 -1 -11.1199 175.215 TC 65 -11.1018 175.237 4 -11.1199 175.215 TC 35 12 265
1964089S12178 1964 24 SP MM HENRIETTA 1964-03-29 12:00:00 TS -11.2000 174.600 main 745 745 O________OO_O_ jtwc_sh SH291964 -11.2000 174.600 -1 -11.2000 174.600 TC 65 -11.2000 174.600 4 -11.2000 174.600 TC 35 13 261
1964089S12178 1964 24 SP MM HENRIETTA 1964-03-29 15:00:00 TS -11.3184 173.960 main 775 775 P________PP_P_ SH291964 -11.3199 173.957 -1 -11.3199 173.957 TC 65 -11.3139 173.967 4 -11.3199 173.957 TC 37 13 257
1964089S12178 1964 24 SP MM HENRIETTA 1964-03-29 18:00:00 TS -11.4968 173.304 main 777 709 O________OP_O_ jtwc_sh SH291964 -11.5000 173.300 -1 -11.5000 173.300 TC 65 -11.4873 173.315 4 -11.5000 173.300 TC 40 13 253
1964089S12178 1964 24 SP MM HENRIETTA 1964-03-29 21:00:00 TS -11.7192 172.651 main 709 627 P________PP_P_ SH291964 -11.7199 172.650 -1 -11.7199 172.650 TC 65 -11.7170 172.655 4 -11.7199 172.650 TC 42 14 248
1964089S12178 1964 24 SP MM HENRIETTA 1964-03-30 00:00:00 TS -12.0000 172.000 main 627 554 O________OO_O_ jtwc_sh SH291964 -12.0000 172.000 -1 -12.0000 172.000 TC 65 -12.0000 172.000 4 -12.0000 172.000 TC 45 14 245
1964089S12178 1964 24 SP MM HENRIETTA 1964-03-30 03:00:00 TS -12.3256 171.348 main 545 466 P________PP_P_ SH291964 -12.3274 171.342 -1 -12.3274 171.342 TC 65 -12.3202 171.364 4 -12.3274 171.342 TC 45 14 241
1964089S12178 1964 24 SP MM HENRIETTA 1964-03-30 06:00:00 TS -12.6974 170.709 main 466 387 O________OP_O_ jtwc_sh SH291964 -12.7000 170.700 -1 -12.7000 170.700 TC 65 -12.6895 170.735 4 -12.7000 170.700 TC 45 14 238
1964089S12178 1964 24 SP MM HENRIETTA 1964-03-30 09:00:00 TS -13.0915 170.098 main 387 308 P________PP_P_ SH291964 -13.0923 170.092 -1 -13.0923 170.092 TC 65 -13.0890 170.114 4 -13.0923 170.092 TC 47 14 236
1964089S12178 1964 24 SP MM HENRIETTA 1964-03-30 12:00:00 TS -13.5000 169.500 main 308 229 O________OO_O_ jtwc_sh SH291964 -13.5000 169.500 -1 -13.5000 169.500 TC 65 -13.5000 169.500 4 -13.5000 169.500 TC 50 14 235
1964089S12178 1964 24 SP MM HENRIETTA 1964-03-30 15:00:00 TS -13.9052 168.892 main 229 151 P________PP_P_ SH291964 -13.8999 168.900 -1 -13.8999 168.900 TC 65 -13.9211 168.869 4 -13.8999 168.900 TC 50 14 235
1964089S12178 1964 24 SP MM HENRIETTA 1964-03-30 18:00:00 TS -14.3112 168.287 main 151 72 O________OP_O_ jtwc_sh SH291964 -14.3000 168.300 -1 -14.3000 168.300 TC 65 -14.3449 168.248 4 -14.3000 168.300 TC 50 14 235
1964089S12178 1964 24 SP MM HENRIETTA 1964-03-30 21:00:00 TS -14.7284 167.672 main 72 0 P________PP_P_ SH291964 -14.7225 167.678 -1 -14.7225 167.678 TC 65 -14.7462 167.653 4 -14.7225 167.678 TC 52 14 236
1964089S12178 1964 24 SP MM HENRIETTA 1964-03-31 00:00:00 TS -15.1000 167.100 main 0 0 O________OO_O_ jtwc_sh SH291964 -15.1000 167.100 -1 -15.1000 167.100 TC 65 -15.1000 167.100 4 -15.1000 167.100 TC 55 12 237
1964089S12178 1964 24 SP MM HENRIETTA 1964-03-31 03:00:00 TS -15.3815 166.623 main 0 0 P________PP_P_ SH291964 -15.3798 166.627 -1 -15.3798 166.627 TC 65 -15.3866 166.610 4 -15.3798 166.627 TC 55 10 240
1964089S12178 1964 24 SP MM HENRIETTA 1964-03-31 06:00:00 TS -15.6060 166.190 main 48 48 O________OP_O_ jtwc_sh SH291964 -15.6000 166.200 -1 -15.6000 166.200 TC 65 -15.6239 166.161 4 -15.6000 166.200 TC 55 10 243
1964089S12178 1964 24 SP MM HENRIETTA 1964-03-31 09:00:00 TS -15.8172 165.745 main 106 106 P________PP_P_ SH291964 -15.8149 165.750 -1 -15.8149 165.750 TC 65 -15.8242 165.732 4 -15.8149 165.750 TC 57 9 245
1964089S12178 1964 24 SP MM HENRIETTA 1964-03-31 12:00:00 TS -16.0000 165.300 main 154 154 O________OO_O_ jtwc_sh SH291964 -16.0000 165.300 -1 -16.0000 165.300 TC 65 -16.0000 165.300 4 -16.0000 165.300 TC 60 9 248
1964089S12178 1964 24 SP MM HENRIETTA 1964-03-31 15:00:00 TS -16.1557 164.853 main 202 202 P________PP_P_ SH291964 -16.1574 164.857 -1 -16.1574 164.857 TC 65 -16.1509 164.839 4 -16.1574 164.857 TC 60 9 251
1964089S12178 1964 24 SP MM HENRIETTA 1964-03-31 18:00:00 TS -16.2961 164.393 main 256 256 O________OP_O_ jtwc_sh SH291964 -16.3000 164.400 -1 -16.3000 164.400 TC 65 -16.2845 164.371 4 -16.3000 164.400 TC 60 9 253
1964089S12178 1964 24 SP MM HENRIETTA 1964-03-31 21:00:00 TS -16.4326 163.909 main 309 309 P________PP_P_ SH291964 -16.4349 163.915 -1 -16.4349 163.915 TC 65 -16.4258 163.892 4 -16.4349 163.915 TC 60 9 254
1964089S12178 1964 24 SP MM HENRIETTA 1964-03-31 23:00:00 TS -16.5182 163.604 985 bom main 343 343 P_____O__PP_P_ SH291964 -16.5385 163.575 -1 -16.2000 164.100 985 -16.5385 163.575 TC 65 -16.5368 163.566 4 -16.5385 163.575 TC 60 9 253
1964089S12178 1964 24 SP MM HENRIETTA 1964-04-01 00:00:00 TS -16.5598 163.469 main 357 357 O_____P__OO_O_ jtwc_sh SH291964 -16.6000 163.400 -1 -16.2378 164.019 984 -16.6000 163.400 TC 65 -16.6000 163.400 4 -16.6000 163.400 TC 60 9 248
1964089S12178 1964 24 SP MM HENRIETTA 1964-04-01 03:00:00 TS -16.7519 162.998 main 397 391 P_____P__PP_P_ SH291964 -16.8275 162.850 -1 -16.3493 163.775 984 -16.8275 162.850 TC 65 -16.8272 162.857 4 -16.8275 162.850 TC 62 10 245
1964089S12178 1964 24 SP MM HENRIETTA 1964-04-01 06:00:00 TS -16.9689 162.547 main 395 390 O_____P__OP_O_ jtwc_sh SH291964 -17.1000 162.300 -1 -16.4540 163.527 983 -17.1000 162.300 TC 65 -17.0905 162.305 4 -17.1000 162.300 TC 65 10 242
1964089S12178 1964 24 SP MM HENRIETTA 1964-04-01 09:00:00 TS -17.2171 162.072 main 396 392 P_____P__PP_P_ SH291964 -17.3850 161.770 -1 -16.5470 163.274 982 -17.3850 161.770 TC 65 -17.3835 161.776 4 -17.3850 161.770 TC 67 10 240
1964089S12178 1964 24 SP MM HENRIETTA 1964-04-01 11:00:00 TS -17.3934 161.778 982 bom main 395 395 P_____O__PP_P_ SH291964 -17.5917 161.447 -1 -16.6000 163.100 982 -17.5917 161.447 TC 65 -17.5923 161.451 4 -17.5917 161.447 TC 69 8 237
1964089S12178 1964 24 SP MM HENRIETTA 1964-04-01 12:00:00 TS -17.4425 161.707 main 402 393 O_____P__OO_O_ jtwc_sh SH291964 -17.7000 161.300 -1 -16.6233 163.012 981 -17.7000 161.300 TC 65 -17.7000 161.300 4 -17.7000 161.300 TC 70 7 232
1964089S12178 1964 24 SP MM HENRIETTA 1964-04-01 15:00:00 TS -17.6685 161.411 main 398 398 P_____P__PP_P_ SH291964 -18.0423 160.920 -1 -16.6824 162.741 981 -18.0423 160.920 TC 65 -18.0400 160.901 4 -18.0423 160.920 TC 70 7 230
1964089S12178 1964 24 SP MM HENRIETTA 1964-04-01 18:00:00 TS -17.8887 161.158 main 398 398 O_____P__OP_O_ jtwc_sh SH291964 -18.4000 160.600 -1 -16.7298 162.465 980 -18.4000 160.600 TC 65 -18.3993 160.560 4 -18.4000 160.600 TC 70 6 228
1964089S12178 1964 24 SP MM HENRIETTA 1964-04-01 21:00:00 TS -18.0946 160.913 main 408 408 P_____P__PP_P_ SH291964 -18.7574 160.285 -1 -16.7719 162.186 980 -18.7574 160.285 TC 65 -18.7590 160.264 4 -18.7649 160.285 TC 67 7 228
1964089S12178 1964 24 SP MM HENRIETTA 1964-04-01 23:00:00 TS -18.2581 160.725 980 bom main 412 412 P_____O__PP_P_ SH291964 -18.9890 160.092 -1 -16.8000 162.000 980 -18.9890 160.092 TC 65 -18.9896 160.085 4 -18.9947 160.092 TC 65 7 228
1964089S12178 1964 24 SP MM HENRIETTA 1964-04-02 00:00:00 TS -18.3347 160.635 main 421 415 O_____P__OO_O_ jtwc_sh SH291964 -19.1000 160.000 -1 -16.8080 161.911 979 -19.1000 160.000 TC 65 -19.1000 160.000 4 -19.1000 160.000 TC 65 7 230
1964089S12178 1964 24 SP MM HENRIETTA 1964-04-02 03:00:00 TS -18.5406 160.366 main 427 422 P_____P__PP_P_ SH291964 -19.4150 159.735 -1 -16.8284 161.644 979 -19.4150 159.735 TC 65 -19.3883 159.713 4 -19.3575 159.735 TC 65 6 231
1964089S12178 1964 24 SP MM HENRIETTA 1964-04-02 06:00:00 TS -18.7346 160.116 main 446 441 O_____P__OP_O_ jtwc_sh SH291964 -19.7000 159.500 -1 -16.8606 161.374 978 -19.7000 159.500 TC 65 -19.6574 159.460 4 -19.6000 159.500 TC 65 978 6 229
1964089S12178 1964 24 SP EA HENRIETTA 1964-04-02 09:00:00 TS -18.9354 159.878 main 457 453 P_____P__PP_P_ SH291964 -19.9500 159.277 -1 -16.9265 161.094 977 -19.9500 159.277 TC 65 -19.9228 159.251 4 -19.8925 159.278 TC 65 977 6 226
1964089S12178 1964 24 SP EA HENRIETTA 1964-04-02 11:00:00 TS -19.0800 159.733 977 bom main 469 469 P_____O__PP_P_ SH291964 -20.1136 159.153 -1 -17.0000 160.900 977 -20.1136 159.153 TC 65 -20.1053 159.143 4 -20.0974 159.153 TC 65 977 6 223
1964089S12178 1964 24 SP EA HENRIETTA 1964-04-02 12:00:00 TS -19.1534 159.665 main 466 466 O_____P__OO_O_ jtwc_sh SH291964 -20.2000 159.100 -1 -17.0205 160.790 976 -20.2000 159.100 TC 65 -20.2000 159.100 4 -20.2000 159.100 TC 65 977 6 222
1964089S12178 1964 24 SP EA HENRIETTA 1964-04-02 15:00:00 TS -19.3728 159.460 main 481 481 P_____P__PP_P_ SH291964 -20.4850 158.963 -1 -17.1077 160.444 976 -20.4850 158.963 TC 65 -20.4860 158.989 4 -20.4925 158.963 TC 65 976 6 216
1964089S12178 1964 24 SP EA HENRIETTA 1964-04-02 18:00:00 TS -19.6325 159.301 main 497 495 O_____P__OP_O_ jtwc_sh SH291964 -20.8000 158.900 -1 -17.2776 160.099 975 -20.8000 158.900 TC 65 -20.7897 158.938 4 -20.8000 158.900 TC 65 976 6 203
1964089S12178 1964 24 SP EA HENRIETTA 1964-04-02 21:00:00 TS -19.9495 159.202 main 503 500 P_____P__PP_P_ SH291964 -21.1275 158.913 -1 -17.5875 159.782 975 -21.1275 158.913 TC 65 -21.1236 158.943 4 -21.1200 158.920 TC 67 975 7 192
1964089S12178 1964 24 SP EA HENRIETTA 1964-04-02 23:00:00 TS -20.2135 159.174 975 bom main 500 500 P_____O__PP_P_ SH291964 -21.3693 158.964 -1 -17.9000 159.600 975 -21.3693 158.964 TC 65 -21.3690 158.975 4 -21.3636 158.970 TC 69 975 8 186
1964089S12178 1964 24 SP EA HENRIETTA 1964-04-03 00:00:00 TS -20.3622 159.166 main 500 500 O_____P__OO_O_ jtwc_sh SH291964 -21.5000 159.000 -1 -18.0730 159.496 974 -21.5000 159.000 TC 65 -21.5000 159.000 4 -21.5000 159.000 TC 70 975 10 0
1964089S12178 1964 24 SP EA HENRIETTA 1964-04-03 03:00:00 TS -20.8924 159.167 main 504 504 P_____P__PP_P_ SH291964 -21.9275 159.135 -1 -18.7327 159.250 973 -21.9275 159.135 TC 65 -21.9684 159.083 4 -21.9850 159.078 TC 70 973 11 177
1964089S12178 1964 24 SP EA HENRIETTA 1964-04-03 05:00:00 TS -21.3006 159.216 972 bom main 511 511 P_____O__PP_P_ SH291964 -22.2391 159.245 -1 -19.3000 159.200 972 -22.2391 159.245 TC 65 -22.3033 159.167 4 -22.3312 159.153 TC 70 972 13 172
1964089S12178 1964 24 SP EA HENRIETTA 1964-04-03 06:00:00 TS -21.5181 159.257 main 506 506 O_____P__OP_O_ jtwc_sh SH291964 -22.4000 159.300 -1 -19.6362 159.227 970 -22.4000 159.300 TC 65 -22.4724 159.217 4 -22.5000 159.200 TC 70 972 14 167
1964089S12178 1964 24 SP EA HENRIETTA 1964-04-03 09:00:00 TS -22.2139 159.439 main 521 516 P_____P__PP_P_ SH291964 -22.9300 159.450 -1 -20.7693 159.469 967 -22.9300 159.450 TC 65 -22.9652 159.392 4 -22.9800 159.385 TC 75 968 14 165
1964089S12178 1964 24 SP EA HENRIETTA 1964-04-03 11:00:00 TS -22.6564 159.591 965 bom main 528 525 P_____O__PP_P_ SH291964 -23.2593 159.550 -1 -21.5000 159.700 965 -23.2593 159.550 TC 65 -23.2644 159.528 4 -23.2698 159.528 TC 78 966 13 161
1964089S12178 1964 24 SP EA HENRIETTA 1964-04-03 12:00:00 TS -22.8494 159.668 main 525 525 O_____P__OO_O_ jtwc_sh SH291964 -23.4000 159.600 -1 -21.7965 159.807 964 -23.4000 159.600 TC 65 -23.4000 159.600 4 -23.4000 159.600 TC 80 965 10 158
1964089S12178 1964 24 SP EA HENRIETTA 1964-04-03 15:00:00 TS -23.2984 159.870 main 539 538 P_____P__PP_P_ SH291964 -23.6873 159.720 -1 -22.5413 160.165 963 -23.6873 159.720 TC 65 -23.6890 159.746 4 -23.7374 159.785 TC 82 963 9 153
1964089S12178 1964 24 SP MM HENRIETTA 1964-04-03 18:00:00 TS -23.6464 160.108 main 542 537 O_____P__OP_O_ jtwc_sh SH291964 -23.9000 159.900 -1 -23.1207 160.532 962 -23.9000 159.900 TC 65 -23.9202 159.931 4 -24.0000 160.000 TC 85 962 8 144
1964089S12178 1964 24 SP MM HENRIETTA 1964-04-03 21:00:00 TS -23.9524 160.384 main 544 534 P_____P__PP_P_ SH291964 -24.1271 160.168 -1 -23.6014 160.847 960 -24.1271 160.168 TC 65 -24.1415 160.200 4 -24.1845 160.226 TC 85 961 8 138
1964089S12178 1964 24 SP MM HENRIETTA 1964-04-03 23:00:00 TS -24.1607 160.611 960 bom main 540 532 P_____O__PP_P_ SH291964 -24.2993 160.433 -1 -23.9000 161.000 960 4 -24.2993 160.433 TC 65 -24.3068 160.449 4 -24.3154 160.450 TC 85 960 9 135
1964089S12178 1964 24 SP MM HENRIETTA 1964-04-04 00:00:00 TS -24.2751 160.741 main 538 529 O_____P__OO_O_ jtwc_sh SH291964 -24.4000 160.600 -1 -24.0509 161.049 960 -24.4000 160.600 TC 65 -24.4000 160.600 4 -24.4000 160.600 TC 85 960 11 134
1964089S12178 1964 24 SP MM HENRIETTA 1964-04-04 01:00:00 TS -24.4035 160.890 960 bom main 529 520 P_____O__PP_P_ SH291964 -24.5163 160.791 -1 -24.2000 161.100 960 -24.5163 160.791 TC 65 -24.5213 160.782 4 -24.5106 160.785 TC 85 960 12 131
1964089S12178 1964 24 SP MM HENRIETTA 1964-04-04 03:00:00 TS -24.6743 161.240 main 528 514 P_____P__PP_P_ SH291964 -24.7777 161.240 -1 -24.4709 161.249 960 -24.7777 161.240 TC 65 -24.7831 161.202 4 -24.7702 161.232 TC 85 960 14 130
1964089S12178 1964 24 SP MM HENRIETTA 1964-04-04 06:00:00 TS -25.1283 161.851 main 514 514 O_____P__OP_O_ jtwc_sh SH291964 -25.2000 162.000 -1 -24.9674 161.570 960 -25.2000 162.000 TC 65 -25.2027 161.934 4 -25.2000 162.000 TC 85 960 15 130
1964089S12178 1964 24 SP MM HENRIETTA 1964-04-04 07:00:00 TS -25.2971 162.062 961 bom main 521 521 P_____O__PP_P_ SH291964 -25.3411 162.250 -1 -25.2000 161.700 961 -25.3411 162.250 TC 65 -25.3440 162.194 4 -25.3411 162.250 TC 84 960 16 132
1964089S12178 1964 24 SP MM HENRIETTA 1964-04-04 09:00:00 TS -25.6718 162.519 main 539 534 P_____P__PP_P_ SH291964 -25.6224 162.757 -1 -25.8508 161.974 963 -25.6224 162.757 TC 65 -25.6206 162.724 4 -25.6224 162.757 TC 82 962 17 131
1964089S12178 1964 24 SP MM HENRIETTA 1964-04-04 11:00:00 TS -26.0264 162.999 965 bom main 537 534 P_____O__PP_P_ SH291964 -25.8838 163.259 -1 -26.5000 162.300 965 -25.8838 163.259 TC 65 -25.8800 163.248 4 -25.8838 163.259 TC 80 964 17 127
1964089S12178 1964 24 SP MM HENRIETTA 1964-04-04 12:00:00 TS -26.1676 163.258 main 537 523 O_____P__OO_O_ jtwc_sh SH291964 -26.0000 163.500 -1 -26.7549 162.482 965 -26.0000 163.500 TC 65 -26.0000 163.500 4 -26.0000 163.500 TC 80 965 15 117
1964089S12178 1964 24 SP MM HENRIETTA 1964-04-04 15:00:00 TS -26.4649 163.966 main 528 513 P_____P__PP_P_ SH291964 -26.2721 164.173 -1 -27.2072 163.094 966 -26.2721 164.173 TC 65 -26.3012 164.216 4 -26.2721 164.173 TC 80 966 13 111
1964089S12178 1964 24 SP MM HENRIETTA 1964-04-04 18:00:00 TS -26.6383 164.658 main 510 506 O_____P__OP_O_ jtwc_sh SH291964 -26.5000 164.800 -1 -27.2956 163.779 967 -26.5000 164.800 TC 65 -26.5603 164.894 4 -26.5000 164.800 TC 80 967 13 106
1964089S12178 1964 24 SP MM HENRIETTA 1964-04-04 21:00:00 TS -26.8104 165.354 main 508 506 P_____P__PP_P_ SH291964 -26.7575 165.445 -1 -27.1547 164.506 969 -26.7575 165.445 TC 65 -26.7891 165.500 4 -26.7651 165.452 TC 77 968 13 106
1964089S12178 1964 24 SP MM HENRIETTA 1964-04-04 23:00:00 TS -26.9303 165.787 970 bom main 510 510 P_____O__PP_P_ SH291964 -26.9224 165.831 -1 -27.0000 165.000 970 -26.9224 165.831 TC 65 -26.9309 165.847 4 -26.9282 165.837 TC 75 969 12 108
1964089S12178 1964 24 SP MM HENRIETTA 1964-04-05 00:00:00 TS -27.0000 166.000 main 518 517 O________OO_O_ jtwc_sh SH291964 -27.0000 166.000 -1 -27.0000 166.000 TC 65 -27.0000 166.000 4 -27.0000 166.000 TC 75 970 9 116
1964089S12178 1964 24 SP MM HENRIETTA 1964-04-05 03:00:00 TS -27.1953 166.396 main 537 536 P________PP_P_ SH291964 -27.2072 166.418 -1 -27.2072 166.418 TC 65 -27.2170 166.387 4 -27.1496 166.360 TC 72 7 123
1964089S12178 1964 24 SP MM HENRIETTA 1964-04-05 06:00:00 TS -27.3802 166.667 main 558 558 O________OP_O_ jtwc_sh SH291964 -27.4000 166.700 -1 -27.4000 166.700 TC 65 -27.4208 166.666 4 -27.3000 166.600 TC 70 6 134
1964089S12178 1964 24 SP MM HENRIETTA 1964-04-05 09:00:00 TS -27.5948 166.867 main 581 581 P________PP_P_ SH291964 -27.6074 166.888 -1 -27.6074 166.888 TC 65 -27.6143 166.862 4 -27.5499 166.830 TC 67 5 145
1964089S12178 1964 24 SP MM HENRIETTA 1964-04-05 12:00:00 TS -27.8000 167.000 main 603 603 O________OO_O_ jtwc_sh SH291964 -27.8000 167.000 -1 -27.8000 167.000 TC 65 -27.8000 167.000 4 -27.8000 167.000 TC 65 4 148
1964089S12178 1964 24 SP MM HENRIETTA 1964-04-05 15:00:00 TS -27.9568 167.121 main 625 625 P________PP_P_ SH291964 -27.9500 167.115 -1 -27.9500 167.115 TC 65 -27.9697 167.130 4 -27.9575 167.123 TC 62 4 150
1964089S12178 1964 24 SP MM HENRIETTA 1964-04-05 18:00:00 TS -28.1087 167.203 main 637 637 O________OP_O_ jtwc_sh SH291964 -28.1000 167.200 -1 -28.1000 167.200 TC 65 -28.1347 167.211 4 -28.1000 167.200 TC 60 4 161
1964089S12178 1964 24 SP MM HENRIETTA 1964-04-05 21:00:00 TS -28.2906 167.258 main 660 660 P________PP_P_ SH291964 -28.2850 167.258 -1 -28.2850 167.258 TC 65 -28.3073 167.261 4 -28.2850 167.258 TC 57 4 167
1964089S12178 1964 24 SP MM HENRIETTA 1964-04-06 00:00:00 TS -28.5000 167.300 main 682 682 O________OO_O_ jtwc_sh SH291964 -28.5000 167.300 -1 -28.5000 167.300 TC 65 -28.5000 167.300 4 -28.5000 167.300 TC 55 5 170
1964089S12178 1964 24 SP MM HENRIETTA 1964-04-06 03:00:00 TS -28.7380 167.354 main 705 705 P________PP_P_ SH291964 -28.7425 167.350 -1 -28.7425 167.350 TC 65 -28.7244 167.365 4 -28.7425 167.350 TC 52 5 170
1964089S12178 1964 24 SP MM HENRIETTA 1964-04-06 06:00:00 TS -28.9925 167.406 main 738 738 O________OP_O_ jtwc_sh SH291964 -29.0000 167.400 -1 -29.0000 167.400 TC 65 -28.9700 167.422 4 -29.0000 167.400 TC 50 5 169
1964089S12178 1964 24 SP MM HENRIETTA 1964-04-06 09:00:00 TS -29.2452 167.460 main 761 735 P________PP_P_ SH291964 -29.2500 167.457 -1 -29.2500 167.457 TC 65 -29.2306 167.468 4 -29.2500 167.457 TC 47 5 171
1964089S12178 1964 24 SP MM HENRIETTA 1964-04-06 12:00:00 TS -29.5000 167.500 main 735 718 O________OO_O_ jtwc_sh SH291964 -29.5000 167.500 -1 -29.5000 167.500 TC 65 -29.5000 167.500 4 -29.5000 167.500 TC 45 5 176
1964089S12178 1964 24 SP MM HENRIETTA 1964-04-06 15:00:00 TS -29.7488 167.508 main 718 693 P________PP_P_ SH291964 -29.7425 167.508 -1 -29.7425 167.508 TC 65 -29.7678 167.511 4 -29.7425 167.508 TC 42 5 177
1964089S12178 1964 24 SP MM HENRIETTA 1964-04-06 18:00:00 TS -30.0106 167.502 main 693 669 O________OP_O_ jtwc_sh SH291964 -30.0000 167.500 -1 -30.0000 167.500 TC 65 -30.0425 167.508 4 -30.0000 167.500 TC 40 6 0
1964089S12178 1964 24 SP MM HENRIETTA 1964-04-06 21:00:00 TS -30.3034 167.500 main 669 645 P________PP_P_ SH291964 -30.3000 167.500 -1 -30.3000 167.500 TC 65 -30.3209 167.501 4 -30.2925 167.500 TC 37 6 181
1964089S12178 1964 24 SP MM HENRIETTA 1964-04-07 00:00:00 TS -30.6000 167.500 main 645 622 O________OO_O_ jtwc_sh SH291964 -30.6000 167.500 -1 -30.6000 167.500 TC 65 -30.6000 167.500 4 -30.6000 167.500 TC 35 6 0
1964089S12178 1964 24 SP MM HENRIETTA 1964-04-07 03:00:00 TS -30.8716 167.498 main 622 608 P________PP_P_ SH291964 -30.8500 167.493 -1 -30.8500 167.493 TC 65 -30.8791 167.514 4 -30.9075 167.493 TC 35 5 178
1964089S12178 1964 24 SP MM HENRIETTA 1964-04-07 06:00:00 TS -31.1394 167.509 main 608 579 O________OP_O_ jtwc_sh SH291964 -31.1000 167.500 -1 -31.1000 167.500 TC 65 -31.1575 167.535 4 -31.2000 167.500 TC 35 6 174
1964089S12178 1964 24 SP MM HENRIETTA 1964-04-07 09:00:00 TS -31.4224 167.555 main 579 559 P________PP_P_ SH291964 -31.4000 167.557 -1 -31.4000 167.557 TC 65 -31.4322 167.564 4 -31.4575 167.542 TC 32 6 172
1964089S12178 1964 24 SP MM HENRIETTA 1964-04-07 12:00:00 TS -31.7000 167.600 main 559 547 O________OO_O_ jtwc_sh SH291964 -31.7000 167.600 -1 -31.7000 167.600 TC 65 -31.7000 167.600 4 -31.7000 167.600 TC 30 5 177
1964089S12178 1964 24 SP MM HENRIETTA 1964-04-07 15:00:00 TS -31.9542 167.565 main 541 535 P________PP_P_ SH291964 -31.9575 167.535 -1 -31.9575 167.535 TC 65 -31.9517 167.539 4 -31.9500 167.650 TC 30 5 184
1964089S12178 1964 24 SP MM HENRIETTA 1964-04-07 18:00:00 TS -32.1994 167.550 main 529 518 O________OP_O_ jtwc_sh SH291964 -32.2000 167.500 -1 -32.2000 167.500 TC 65 -32.1974 167.501 4 -32.2000 167.700 TC 30 5 0
1964089S12178 1964 24 SP MM HENRIETTA 1964-04-07 21:00:00 TS -32.4389 167.586 main 518 486 P________PP_P_ SH291964 -32.4420 167.553 -1 -32.4420 167.553 TC 65 -32.4445 167.562 4 -32.4271 167.676 TC 30 5 157
1964089S12178 1964 24 SP MM HENRIETTA 1964-04-08 00:00:00 TS -32.7000 167.800 main 486 430 O________OO_O_ jtwc_sh SH291964 -32.7000 167.800 -1 -32.7000 167.800 TC 65 -32.7000 167.800 4 -32.7000 167.800 TC 30 8 135
1964089S12178 1964 24 SP MM HENRIETTA 1964-04-08 03:00:00 TS -33.0303 168.287 main 430 366 P________PP_P_ SH291964 -32.9999 168.302 -1 -32.9999 168.302 TC 65 -33.0065 168.313 4 -33.1147 168.229 TC 30 12 123
1964089S12178 1964 24 SP MM HENRIETTA 1964-04-08 06:00:00 TS -33.3533 168.977 main 353 284 O________OP_O_ jtwc_sh SH291964 -33.3000 169.000 -1 -33.3000 169.000 TC 65 -33.3131 169.007 4 -33.5000 168.900 TC 30 14 115
1964089S12178 1964 24 SP MM HENRIETTA 1964-04-08 09:00:00 TS -33.6167 169.777 main 276 199 P________PP_P_ SH291964 -33.5879 169.792 -1 -33.5879 169.792 TC 65 -33.5877 169.798 4 -33.7032 169.728 TC 30 14 108
1964089S12178 1964 24 SP MM HENRIETTA 1964-04-08 12:00:00 TS -33.8000 170.600 main 199 136 O________OO_O_ jtwc_sh SH291964 -33.8000 170.600 -1 -33.8000 170.600 TC 65 -33.8000 170.600 4 -33.8000 170.600 TC 30 13 102
1964089S12178 1964 24 SP MM HENRIETTA 1964-04-08 15:00:00 TS -33.8759 171.287 main 136 92 P________PP_P_ SH291964 -33.8791 171.266 -1 -33.8791 171.266 TC 65 -33.8809 171.287 4 -33.8643 171.331 TC 30 11 95
1964089S12178 1964 24 SP MM HENRIETTA 1964-04-08 18:00:00 TS -33.9014 171.941 main 92 66 O________OP_O_ jtwc_sh SH291964 -33.9000 171.900 -1 -33.9000 171.900 TC 65 -33.9058 171.964 4 -33.9000 172.000 TC 30 11 92
1964089S12178 1964 24 SP MM HENRIETTA 1964-04-08 21:00:00 TS -33.9217 172.622 main 66 55 P________PP_P_ SH291964 -33.9199 172.601 -1 -33.9199 172.601 TC 65 -33.9278 172.634 4 -33.9194 172.651 TC 30 11 95
1964089S12178 1964 24 SP MM HENRIETTA 1964-04-09 00:00:00 TS -34.0000 173.300 main 62 62 O________OO_O_ jtwc_sh SH291964 -34.0000 173.300 -1 -34.0000 173.300 TC 65 -34.0000 173.300 4 -34.0000 173.300 TC 30 12 105
1964089S12178 1964 24 SP MM HENRIETTA 1964-04-09 03:00:00 TS -34.2159 173.978 main 91 82 P________PP_P_ SH291964 -34.2194 173.950 -1 -34.2194 173.950 TC 65 -34.2050 174.013 4 -34.2199 174.000 TC 30 12 114
1964089S12178 1964 24 SP MM HENRIETTA 1964-04-09 06:00:00 TS -34.4908 174.655 main 92 90 O________OP_O_ jtwc_sh SH291964 -34.5000 174.600 -1 -34.5000 174.600 TC 65 -34.4632 174.721 4 -34.5000 174.700 TC 30 13 115
1964089S12178 1964 24 SP MM HENRIETTA 1964-04-09 09:00:00 TS -34.7550 175.357 main 112 112 P________PP_P_ SH291964 -34.7577 175.322 -1 -34.7577 175.322 TC 65 -34.7396 175.395 4 -34.7649 175.387 TC 30 12 115
1964089S12178 1964 24 SP MM HENRIETTA 1964-04-09 12:00:00 TS -35.0000 176.000 main 151 151 O________OO_O_ jtwc_sh SH291964 -35.0000 176.000 -1 -35.0000 176.000 TC 65 -35.0000 176.000 4 -35.0000 176.000 TC 30 11 115
1964089S12178 1964 24 SP MM HENRIETTA 1964-04-09 15:00:00 TS -35.2011 176.527 main 180 180 P________PP_P_ SH291964 -35.2146 176.553 -1 -35.2146 176.553 TC 65 -35.2182 176.514 4 -35.1570 176.488 TC 30 9 115
1964089S12178 1964 24 SP MM HENRIETTA 1964-04-09 18:00:00 TS -35.3749 176.963 main 189 189 O________OP_O_ jtwc_sh SH291964 -35.4000 177.000 -1 -35.4000 177.000 TC 65 -35.3995 176.952 4 -35.3000 176.900 TC 30 7 117
1964089S12178 1964 24 SP MM HENRIETTA 1964-04-09 21:00:00 TS -35.5392 177.344 main 202 202 P________PP_P_ SH291964 -35.5577 177.370 -1 -35.5577 177.370 TC 65 -35.5561 177.338 4 -35.4854 177.299 TC 27 7 118
1964089S12178 1964 24 SP MM HENRIETTA 1964-04-10 00:00:00 TS -35.7000 177.700 main 213 O________OO_O_ jtwc_sh SH291964 -35.7000 177.700 -1 -35.7000 177.700 TC 65 -35.7000 177.700 4 -35.7000 177.700 TC 25 7 119

Digital Typhoon Data and Search

About IBTrACS Database

This database is a web-friendly format of International Best Track Archive for Climate Stewardship (IBTrACS), a global best track data archive curated by NOAA dating back to 1842.

Updated: 2021-12-03